createdAt,value
2023-03-22T00:01:32.517Z,46.30
2023-03-22T00:03:25.597Z,44.30
2023-03-22T00:05:18.618Z,43.90
2023-03-22T00:07:11.669Z,46.30
2023-03-22T00:09:04.827Z,44.20
2023-03-22T00:10:57.777Z,44.50
2023-03-22T00:12:51.128Z,44.30
2023-03-22T00:14:44.282Z,45.00
2023-03-22T00:16:37.358Z,45.00
2023-03-22T00:18:30.481Z,44.60
2023-03-22T00:20:23.840Z,45.70
2023-03-22T00:22:16.890Z,44.50
2023-03-22T00:24:09.945Z,43.50
2023-03-22T00:26:02.996Z,42.70
2023-03-22T00:27:55.986Z,43.60
2023-03-22T00:29:48.991Z,42.70
2023-03-22T00:31:42.396Z,43.50
2023-03-22T00:33:36.646Z,43.70
2023-03-22T00:35:29.686Z,41.20
2023-03-22T00:37:22.730Z,40.90
2023-03-22T00:39:15.816Z,43.10
2023-03-22T00:41:12.581Z,43.40
2023-03-22T00:43:05.574Z,43.20
2023-03-22T00:44:58.517Z,42.30
2023-03-22T00:46:51.493Z,41.70
2023-03-22T00:48:45.338Z,44.10
2023-03-22T00:50:40.292Z,43.50
2023-03-22T00:52:33.691Z,44.00
2023-03-22T00:54:27.255Z,42.90
2023-03-22T00:56:23.123Z,43.50
2023-03-22T00:58:26.920Z,43.60
2023-03-22T01:00:20.545Z,44.00
2023-03-22T01:02:14.203Z,43.40
2023-03-22T01:04:07.253Z,42.00
2023-03-22T01:06:01.132Z,41.90
2023-03-22T01:07:55.132Z,42.50
2023-03-22T01:09:48.863Z,42.00
2023-03-22T01:11:43.243Z,43.00
2023-03-22T01:13:41.969Z,41.80
2023-03-22T01:15:35.693Z,42.30
2023-03-22T01:17:29.044Z,43.00
2023-03-22T01:19:21.993Z,42.40
2023-03-22T01:21:15.150Z,41.70
2023-03-22T01:23:08.312Z,40.90
2023-03-22T01:25:01.554Z,42.30
2023-03-22T01:26:54.735Z,44.20
2023-03-22T01:28:47.654Z,42.00
2023-03-22T01:30:41.176Z,43.80
2023-03-22T01:32:37.024Z,41.20
2023-03-22T01:34:31.415Z,42.50
2023-03-22T01:36:24.668Z,41.10
2023-03-22T01:38:17.927Z,41.30
2023-03-22T01:40:17.632Z,41.70
2023-03-22T01:42:14.623Z,40.70
2023-03-22T01:44:16.774Z,41.60
2023-03-22T01:46:18.330Z,40.00
2023-03-22T01:48:17.943Z,40.50
2023-03-22T01:50:11.662Z,39.80
2023-03-22T01:52:11.165Z,39.50
2023-03-22T01:54:34.827Z,40.20
2023-03-22T01:56:35.042Z,39.60
2023-03-22T02:00:24.641Z,37.10
2023-03-22T02:02:31.167Z,37.50
2023-03-22T02:04:35.887Z,37.80
2023-03-22T02:06:32.477Z,40.10
2023-03-22T02:08:33.197Z,41.20
2023-03-22T02:10:28.699Z,41.30
2023-03-22T02:12:37.427Z,39.20
2023-03-22T02:14:47.668Z,40.10
2023-03-22T02:17:02.530Z,38.70
2023-03-22T02:19:30.716Z,39.80
2023-03-22T02:21:42.700Z,39.90
2023-03-22T02:24:05.804Z,39.40
2023-03-22T02:26:11.405Z,39.20
2023-03-22T02:28:17.616Z,38.40
2023-03-22T02:30:19.723Z,39.00
2023-03-22T02:32:41.352Z,40.40
2023-03-22T02:34:54.058Z,38.80
2023-03-22T02:37:27.231Z,38.30
2023-03-22T02:39:30.546Z,39.60
2023-03-22T02:42:14.480Z,38.10
2023-03-22T02:44:28.111Z,37.70
2023-03-22T02:46:38.099Z,37.50
2023-03-22T02:49:01.872Z,40.20
2023-03-22T02:51:00.305Z,38.90
2023-03-22T02:55:26.344Z,37.20
2023-03-22T02:57:31.170Z,36.00
2023-03-22T02:59:26.879Z,36.80
2023-03-22T03:01:36.196Z,39.10
2023-03-22T03:03:32.137Z,37.30
2023-03-22T03:05:27.119Z,39.30
2023-03-22T03:07:24.736Z,37.90
2023-03-22T03:09:19.997Z,38.10
2023-03-22T03:11:13.044Z,38.50
2023-03-22T03:13:06.291Z,38.90
2023-03-22T03:14:59.343Z,38.60
2023-03-22T03:17:22.927Z,40.40
2023-03-22T03:19:27.427Z,37.80
2023-03-22T03:21:30.347Z,39.00
2023-03-22T03:23:43.744Z,37.60
2023-03-22T03:26:03.112Z,37.90
2023-03-22T03:28:10.159Z,38.20
2023-03-22T03:30:13.976Z,38.70
2023-03-22T03:32:19.229Z,39.30
2023-03-22T03:34:18.026Z,37.70
2023-03-22T03:36:16.085Z,39.50
2023-03-22T03:38:27.398Z,40.10
2023-03-22T03:40:25.568Z,40.00
2023-03-22T03:42:19.409Z,38.80
2023-03-22T03:44:13.882Z,41.10
2023-03-22T03:46:08.736Z,40.80
2023-03-22T03:48:06.641Z,38.40
2023-03-22T03:49:59.999Z,40.00
2023-03-22T03:51:55.823Z,40.50
2023-03-22T03:53:49.072Z,40.50
2023-03-22T03:55:42.943Z,40.00
2023-03-22T03:57:36.092Z,38.50
2023-03-22T03:59:29.244Z,40.40
2023-03-22T04:01:24.257Z,40.10
2023-03-22T04:03:38.900Z,38.20
2023-03-22T04:05:38.199Z,42.90
2023-03-22T04:07:31.963Z,42.00
2023-03-22T04:09:27.485Z,40.00
2023-03-22T04:11:22.876Z,39.60
2023-03-22T04:13:19.292Z,39.70
2023-03-22T04:15:13.179Z,39.40
2023-03-22T04:17:06.637Z,41.40
2023-03-22T04:18:59.687Z,40.90
2023-03-22T04:20:53.700Z,41.40
2023-03-22T04:22:49.054Z,43.00
2023-03-22T04:24:42.230Z,42.20
2023-03-22T04:26:35.988Z,40.80
2023-03-22T04:28:49.324Z,40.70
2023-03-22T04:30:45.864Z,45.60
2023-03-22T04:32:49.030Z,45.40
2023-03-22T04:34:43.103Z,41.60
2023-03-22T04:36:41.696Z,48.80
2023-03-22T04:38:41.908Z,63.90
2023-03-22T04:40:38.966Z,67.30
2023-03-22T04:42:36.810Z,54.80
2023-03-22T04:46:30.742Z,53.50
2023-03-22T04:48:29.680Z,61.10
2023-03-22T04:50:23.757Z,84.60
2023-03-22T04:52:19.369Z,72.80
2023-03-22T04:54:17.845Z,65.60
2023-03-22T04:56:13.865Z,56.30
2023-03-22T04:58:07.529Z,47.60
2023-03-22T05:00:06.725Z,46.40
2023-03-22T05:01:59.967Z,54.60
2023-03-22T05:03:54.258Z,52.10
2023-03-22T05:05:53.572Z,51.00
2023-03-22T05:07:47.125Z,47.30
2023-03-22T05:09:40.173Z,45.00
2023-03-22T05:11:34.041Z,123.40
2023-03-22T05:13:50.338Z,125.80
2023-03-22T05:15:43.392Z,63.00
2023-03-22T05:17:36.948Z,76.60
2023-03-22T05:19:30.714Z,53.50
2023-03-22T05:21:28.297Z,49.50
2023-03-22T05:25:18.185Z,41.10
2023-03-22T05:27:14.420Z,44.80
2023-03-22T05:29:11.842Z,44.10
2023-03-22T05:31:21.988Z,43.90
2023-03-22T05:33:22.052Z,44.80
2023-03-22T05:35:17.967Z,44.40
2023-03-22T05:37:16.933Z,45.90
2023-03-22T05:39:22.769Z,44.50
2023-03-22T05:41:16.533Z,47.00
2023-03-22T05:43:09.788Z,50.30
2023-03-22T05:45:03.661Z,64.80
2023-03-22T05:46:56.755Z,99.90
2023-03-22T05:49:05.941Z,58.60
2023-03-22T05:50:59.610Z,65.10
2023-03-22T05:52:54.601Z,87.90
2023-03-22T05:54:59.431Z,98.30
2023-03-22T05:56:55.281Z,62.70
2023-03-22T05:58:48.808Z,62.60
2023-03-22T06:00:43.294Z,50.10
2023-03-22T06:02:56.661Z,45.80
2023-03-22T06:04:52.230Z,47.60
2023-03-22T06:06:47.126Z,45.10
2023-03-22T06:08:53.280Z,40.70
2023-03-22T06:10:51.135Z,40.70
2023-03-22T06:12:44.206Z,38.70
2023-03-22T06:14:41.650Z,41.30
2023-03-22T06:19:05.049Z,37.30
2023-03-22T06:21:00.101Z,40.10
2023-03-22T06:22:53.904Z,40.30
2023-03-22T06:24:47.470Z,44.70
2023-03-22T06:26:44.195Z,41.30
2023-03-22T06:28:38.264Z,41.10
2023-03-22T06:30:31.555Z,41.30
2023-03-22T06:32:45.770Z,42.20
2023-03-22T06:34:41.069Z,35.50
2023-03-22T06:36:34.832Z,37.90
2023-03-22T06:38:43.981Z,41.60
2023-03-22T06:40:37.138Z,38.20
2023-03-22T06:42:31.078Z,36.90
2023-03-22T06:44:34.679Z,35.60
2023-03-22T06:46:38.377Z,36.00
2023-03-22T06:48:38.701Z,38.90
2023-03-22T06:50:38.374Z,39.40
2023-03-22T06:52:53.379Z,34.70
2023-03-22T06:54:46.599Z,40.50
2023-03-22T06:56:40.494Z,36.00
2023-03-22T06:58:33.646Z,34.70
2023-03-22T07:00:26.596Z,34.00
2023-03-22T07:02:19.648Z,38.60
2023-03-22T07:04:33.355Z,39.10
2023-03-22T07:06:26.657Z,39.00
2023-03-22T07:08:20.436Z,35.00
2023-03-22T07:10:15.720Z,35.90
2023-03-22T07:12:09.994Z,36.00
2023-03-22T07:14:03.989Z,34.80
2023-03-22T07:16:13.094Z,32.80
2023-03-22T07:18:12.346Z,31.80
2023-03-22T07:20:07.025Z,31.10
2023-03-22T07:22:00.267Z,33.40
2023-03-22T07:23:53.416Z,31.50
2023-03-22T07:25:48.222Z,34.70
2023-03-22T07:27:48.708Z,34.60
2023-03-22T07:29:41.849Z,37.20
2023-03-22T07:31:36.649Z,37.40
2023-03-22T07:33:33.330Z,34.00
2023-03-22T07:35:30.504Z,37.40
2023-03-22T07:37:24.831Z,35.10
2023-03-22T07:39:21.240Z,32.80
2023-03-22T07:41:14.497Z,32.10
2023-03-22T07:43:21.680Z,32.10
2023-03-22T07:45:35.830Z,31.70
2023-03-22T07:47:58.263Z,33.00
2023-03-22T07:50:14.360Z,33.70
2023-03-22T07:52:09.341Z,31.50
2023-03-22T07:54:03.192Z,33.70
2023-03-22T07:55:56.271Z,33.30
2023-03-22T07:57:49.323Z,33.70
2023-03-22T07:59:44.332Z,32.00
2023-03-22T08:01:38.654Z,30.70
2023-03-22T08:03:48.446Z,32.20
2023-03-22T08:05:54.804Z,31.60
2023-03-22T08:07:49.082Z,30.90
2023-03-22T08:09:42.942Z,30.00
2023-03-22T08:11:36.821Z,31.10
2023-03-22T08:13:30.690Z,30.00
2023-03-22T08:15:24.053Z,30.10
2023-03-22T08:17:19.103Z,42.70
2023-03-22T08:19:14.761Z,41.50
2023-03-22T08:21:08.578Z,37.00
2023-03-22T08:23:01.966Z,37.30
2023-03-22T08:25:18.300Z,39.60
2023-03-22T08:27:12.357Z,31.50
2023-03-22T08:31:13.902Z,43.90
2023-03-22T08:33:08.610Z,45.60
2023-03-22T08:35:01.679Z,38.60
2023-03-22T08:36:54.715Z,31.60
2023-03-22T08:38:49.611Z,27.80
2023-03-22T08:40:47.061Z,42.80
2023-03-22T08:42:40.707Z,28.80
2023-03-22T08:44:33.687Z,25.80
2023-03-22T08:46:27.638Z,26.90
2023-03-22T08:48:20.948Z,24.40
2023-03-22T08:50:35.001Z,23.80
2023-03-22T08:52:39.859Z,24.60
2023-03-22T08:54:44.583Z,24.00
2023-03-22T08:56:59.268Z,24.80
2023-03-22T08:59:21.998Z,23.30
2023-03-22T09:01:27.988Z,23.40
2023-03-22T09:03:28.288Z,24.50
2023-03-22T09:05:21.522Z,25.80
2023-03-22T09:07:14.679Z,24.60
2023-03-22T09:09:08.863Z,22.30
2023-03-22T09:11:03.031Z,23.80
2023-03-22T09:12:56.288Z,21.80
2023-03-22T09:14:50.156Z,24.20
2023-03-22T09:16:43.824Z,23.90
2023-03-22T09:18:38.389Z,27.20
2023-03-22T09:20:36.150Z,26.50
2023-03-22T09:22:30.140Z,22.10
2023-03-22T09:24:23.309Z,21.20
2023-03-22T09:26:19.013Z,21.60
2023-03-22T09:28:14.554Z,24.00
2023-03-22T09:30:08.688Z,22.50
2023-03-22T09:32:01.738Z,23.60
2023-03-22T09:33:57.658Z,21.20
2023-03-22T09:35:50.823Z,21.80
2023-03-22T09:37:45.702Z,20.90
2023-03-22T09:39:40.294Z,20.70
2023-03-22T09:41:46.412Z,19.70
2023-03-22T09:43:48.603Z,20.00
2023-03-22T09:45:46.604Z,18.90
2023-03-22T09:47:45.424Z,19.20
2023-03-22T09:49:52.968Z,18.40
2023-03-22T09:51:51.819Z,19.00
2023-03-22T09:53:44.898Z,18.10
2023-03-22T09:55:46.136Z,19.10
2023-03-22T09:57:39.900Z,19.40
2023-03-22T10:00:12.700Z,18.90
2023-03-22T10:02:26.766Z,18.50
2023-03-22T10:04:55.489Z,18.00
2023-03-22T10:07:00.034Z,18.90
2023-03-22T10:09:02.303Z,17.80
2023-03-22T10:10:55.374Z,18.30
2023-03-22T10:13:05.503Z,19.00
2023-03-22T10:15:16.154Z,18.50
2023-03-22T10:17:17.720Z,17.30
2023-03-22T10:19:22.040Z,18.00
2023-03-22T10:21:19.282Z,17.50
2023-03-22T10:23:22.185Z,18.30
2023-03-22T10:25:21.670Z,17.50
2023-03-22T10:29:30.494Z,17.00
2023-03-22T10:31:26.782Z,15.20
2023-03-22T10:33:34.620Z,17.30
2023-03-22T10:35:28.578Z,16.30
2023-03-22T10:37:26.769Z,16.00
2023-03-22T10:39:27.495Z,16.60
2023-03-22T10:41:24.448Z,15.20
2023-03-22T10:43:36.838Z,15.30
2023-03-22T10:45:34.082Z,15.30
2023-03-22T10:47:35.815Z,14.60
2023-03-22T10:49:35.666Z,14.10
2023-03-22T10:51:47.964Z,13.70
2023-03-22T10:53:46.830Z,14.30
2023-03-22T10:55:44.604Z,14.50
2023-03-22T10:57:39.401Z,26.60
2023-03-22T10:59:49.765Z,18.30
2023-03-22T11:01:45.202Z,15.60
2023-03-22T11:03:45.110Z,14.90
2023-03-22T11:05:38.815Z,15.00
2023-03-22T11:07:45.408Z,15.60
2023-03-22T11:09:38.456Z,15.30
2023-03-22T11:11:36.663Z,14.60
2023-03-22T11:15:27.547Z,13.90
2023-03-22T11:17:26.008Z,14.70
2023-03-22T11:19:26.664Z,15.40
2023-03-22T11:21:23.484Z,14.60
2023-03-22T11:23:18.291Z,15.00
2023-03-22T11:25:37.338Z,13.80
2023-03-22T11:27:33.490Z,14.30
2023-03-22T11:29:27.987Z,14.40
2023-03-22T11:31:21.426Z,14.40
2023-03-22T11:33:21.326Z,14.30
2023-03-22T11:35:17.849Z,15.90
2023-03-22T11:37:11.306Z,15.00
2023-03-22T11:39:08.038Z,14.40
2023-03-22T11:41:03.779Z,14.60
2023-03-22T11:43:18.956Z,14.20
2023-03-22T11:45:21.520Z,13.40
2023-03-22T11:47:14.515Z,13.30
2023-03-22T11:49:14.877Z,12.60
2023-03-22T11:51:15.922Z,14.10
2023-03-22T11:53:19.680Z,13.60
2023-03-22T11:55:14.459Z,14.20
2023-03-22T11:57:17.204Z,20.50
2023-03-22T11:59:28.050Z,20.50
2023-03-22T12:02:06.734Z,16.30
2023-03-22T12:04:07.875Z,14.80
2023-03-22T12:06:07.149Z,14.40
2023-03-22T12:08:10.517Z,13.80
2023-03-22T12:10:41.297Z,15.00
2023-03-22T12:12:44.203Z,15.10
2023-03-22T12:14:47.548Z,13.20
2023-03-22T12:16:54.996Z,13.50
2023-03-22T12:18:57.628Z,18.10
2023-03-22T12:20:56.502Z,14.40
2023-03-22T12:22:54.768Z,16.60
2023-03-22T12:24:48.493Z,20.10
2023-03-22T12:26:41.750Z,17.40
2023-03-22T12:28:42.940Z,15.70
2023-03-22T12:30:51.330Z,16.20
2023-03-22T12:32:50.133Z,14.40
2023-03-22T12:34:48.792Z,14.50
2023-03-22T12:36:48.274Z,14.40
2023-03-22T12:39:18.049Z,13.90
2023-03-22T12:41:15.946Z,12.80
2023-03-22T12:43:37.993Z,14.70
2023-03-22T12:45:36.156Z,12.40
2023-03-22T12:49:37.508Z,12.70
2023-03-22T12:51:30.870Z,21.00
2023-03-22T12:53:30.678Z,39.20
2023-03-22T12:55:29.871Z,30.50
2023-03-22T12:57:22.919Z,18.90
2023-03-22T12:59:20.309Z,18.40
2023-03-22T13:01:46.599Z,20.70
2023-03-22T13:03:47.947Z,16.80
2023-03-22T13:05:41.725Z,12.70
2023-03-22T13:07:52.389Z,13.80
2023-03-22T13:09:50.752Z,34.10
2023-03-22T13:12:03.156Z,38.30
2023-03-22T13:13:56.211Z,31.80
2023-03-22T13:16:15.399Z,30.30
2023-03-22T13:18:31.910Z,23.30
2023-03-22T13:20:28.228Z,13.60
2023-03-22T13:22:50.041Z,31.90
2023-03-22T13:25:08.641Z,27.30
2023-03-22T13:27:02.164Z,21.40
2023-03-22T13:28:59.100Z,29.00
2023-03-22T13:30:57.142Z,21.80
2023-03-22T13:32:57.130Z,17.90
2023-03-22T13:34:53.035Z,16.60
2023-03-22T13:36:51.815Z,16.10
2023-03-22T13:38:54.895Z,24.80
2023-03-22T13:41:03.594Z,19.90
2023-03-22T13:43:11.266Z,14.10
2023-03-22T13:45:09.496Z,11.60
2023-03-22T13:47:03.093Z,10.50
2023-03-22T13:49:02.091Z,10.60
2023-03-22T13:50:56.974Z,9.70
2023-03-22T13:53:02.002Z,10.90
2023-03-22T13:54:57.734Z,11.60
2023-03-22T13:56:57.383Z,14.30
2023-03-22T13:58:53.159Z,12.10
2023-03-22T14:00:53.084Z,12.60
2023-03-22T14:02:48.574Z,12.00
2023-03-22T14:04:47.321Z,12.30
2023-03-22T14:06:51.453Z,11.80
2023-03-22T14:08:47.966Z,11.10
2023-03-22T14:10:48.985Z,10.90
2023-03-22T14:12:48.024Z,11.10
2023-03-22T14:14:56.380Z,10.70
2023-03-22T14:16:59.697Z,11.90
2023-03-22T14:18:54.104Z,207.10
2023-03-22T14:20:52.519Z,113.80
